createdAt,value
2022-08-04T00:00:47.932Z,0.70
2022-08-04T00:01:47.955Z,0.70
2022-08-04T00:02:47.901Z,0.60
2022-08-04T00:03:47.879Z,0.60
2022-08-04T00:04:47.869Z,0.70
2022-08-04T00:05:47.849Z,0.60
2022-08-04T00:06:47.882Z,0.60
2022-08-04T00:07:47.823Z,0.70
2022-08-04T00:08:47.821Z,0.70
2022-08-04T00:09:47.804Z,0.60
2022-08-04T00:10:47.794Z,0.60
2022-08-04T00:11:47.784Z,0.60
2022-08-04T00:12:47.785Z,0.70
2022-08-04T00:13:54.235Z,0.70
2022-08-04T00:14:48.732Z,0.70
2022-08-04T00:15:47.722Z,0.60
2022-08-04T00:16:47.713Z,0.70
2022-08-04T00:17:47.794Z,0.70
2022-08-04T00:18:47.695Z,0.60
2022-08-04T00:19:47.676Z,0.70
2022-08-04T00:20:47.674Z,0.70
2022-08-04T00:21:47.655Z,0.70
2022-08-04T00:22:47.644Z,0.60
2022-08-04T00:24:12.200Z,0.60
2022-08-04T00:24:48.625Z,0.60
2022-08-04T00:25:47.603Z,0.70
2022-08-04T00:26:47.595Z,0.60
2022-08-04T00:27:47.600Z,0.60
2022-08-04T00:28:47.574Z,0.70
2022-08-04T00:29:47.555Z,0.70
2022-08-04T00:30:48.535Z,0.70
2022-08-04T00:31:54.759Z,0.60
2022-08-04T00:32:48.532Z,0.70
2022-08-04T00:33:47.499Z,0.70
2022-08-04T00:34:47.519Z,0.70
2022-08-04T00:35:47.477Z,0.60
2022-08-04T00:36:47.579Z,0.70
2022-08-04T00:37:47.465Z,0.60
2022-08-04T00:38:47.445Z,0.70
2022-08-04T00:39:47.426Z,0.80
2022-08-04T00:40:47.429Z,0.70
2022-08-04T00:41:56.839Z,0.80
2022-08-04T00:42:58.189Z,0.70
2022-08-04T00:43:48.369Z,0.60
2022-08-04T00:44:47.358Z,0.80
2022-08-04T00:46:16.448Z,0.70
2022-08-04T00:46:48.328Z,0.60
2022-08-04T00:47:47.318Z,0.60
2022-08-04T00:48:47.326Z,0.80
2022-08-04T00:49:47.308Z,0.70
2022-08-04T00:50:47.300Z,0.60
2022-08-04T00:51:47.330Z,0.70
2022-08-04T00:52:47.270Z,0.60
2022-08-04T00:53:49.911Z,0.80
2022-08-04T00:54:47.243Z,0.70
2022-08-04T00:55:47.232Z,0.70
2022-08-04T00:56:47.221Z,0.70
2022-08-04T00:57:47.199Z,0.70
2022-08-04T00:58:47.191Z,0.60
2022-08-04T00:59:47.170Z,0.70
2022-08-04T01:00:47.280Z,0.70
2022-08-04T01:01:47.185Z,0.70
2022-08-04T01:02:47.170Z,0.70
2022-08-04T01:03:47.121Z,0.70
2022-08-04T01:04:47.200Z,0.70
2022-08-04T01:05:47.119Z,0.70
2022-08-04T01:06:56.140Z,0.70
2022-08-04T01:07:48.103Z,0.70
2022-08-04T01:08:47.087Z,0.80
2022-08-04T01:09:47.064Z,0.70
2022-08-04T01:10:47.087Z,0.70
2022-08-04T01:11:56.905Z,0.80
2022-08-04T01:12:48.026Z,0.80
2022-08-04T01:13:46.998Z,0.70
2022-08-04T01:14:46.993Z,0.70
2022-08-04T01:15:59.826Z,0.70
2022-08-04T01:16:47.953Z,0.80
2022-08-04T01:17:46.965Z,0.80
2022-08-04T01:18:46.952Z,0.70
2022-08-04T01:19:46.924Z,0.80
2022-08-04T01:20:46.948Z,0.80
2022-08-04T01:21:46.893Z,0.70
2022-08-04T01:22:46.873Z,0.70
2022-08-04T01:23:46.883Z,0.80
2022-08-04T01:24:46.854Z,0.80
2022-08-04T01:25:46.844Z,0.80
2022-08-04T01:26:53.681Z,0.80
2022-08-04T01:27:47.833Z,0.90
2022-08-04T01:28:46.815Z,0.70
2022-08-04T01:29:48.825Z,0.90
2022-08-04T01:30:46.841Z,0.80
2022-08-04T01:31:46.796Z,0.70
2022-08-04T01:32:46.775Z,0.80
2022-08-04T01:34:03.624Z,0.90
2022-08-04T01:34:47.737Z,0.80
2022-08-04T01:35:48.371Z,0.80
2022-08-04T01:37:48.246Z,0.80
2022-08-04T01:38:48.241Z,0.80
2022-08-04T01:39:48.207Z,0.80
2022-08-04T01:40:48.208Z,1.00
2022-08-04T01:41:57.971Z,0.70
2022-08-04T01:42:49.199Z,0.80
2022-08-04T01:43:48.189Z,0.80
2022-08-04T01:44:48.148Z,0.90
2022-08-04T01:45:48.139Z,0.80
2022-08-04T01:46:48.129Z,0.80
2022-08-04T01:47:48.120Z,0.80
2022-08-04T01:48:48.196Z,0.70
2022-08-04T01:49:48.077Z,0.80
2022-08-04T01:50:53.086Z,0.80
2022-08-04T01:51:49.063Z,0.90
2022-08-04T01:52:51.173Z,0.90
2022-08-04T01:53:48.021Z,1.00
2022-08-04T01:54:48.018Z,0.90
2022-08-04T01:55:54.390Z,0.90
2022-08-04T01:56:48.991Z,0.80
2022-08-04T01:57:48.194Z,0.90
2022-08-04T01:58:47.979Z,0.90
2022-08-04T01:59:48.002Z,0.80
2022-08-04T02:00:47.941Z,0.90
2022-08-04T02:01:48.060Z,1.00
2022-08-04T02:02:47.995Z,0.90
2022-08-04T02:04:19.911Z,0.90
2022-08-04T02:04:48.911Z,1.00
2022-08-04T02:06:03.414Z,0.90
2022-08-04T02:06:48.850Z,0.90
2022-08-04T02:07:47.840Z,1.00
2022-08-04T02:08:47.850Z,1.00
2022-08-04T02:09:54.771Z,1.20
2022-08-04T02:10:48.823Z,1.00
2022-08-04T02:11:47.793Z,1.10
2022-08-04T02:12:47.770Z,0.90
2022-08-04T02:13:47.781Z,1.00
2022-08-04T02:14:47.779Z,1.00
2022-08-04T02:15:47.741Z,0.90
2022-08-04T02:16:52.372Z,1.00
2022-08-04T02:17:48.703Z,1.00
2022-08-04T02:18:47.703Z,1.00
2022-08-04T02:19:47.693Z,1.00
2022-08-04T02:20:47.684Z,1.00
2022-08-04T02:21:47.676Z,0.90
2022-08-04T02:22:47.654Z,1.00
2022-08-04T02:23:47.656Z,1.10
2022-08-04T02:24:47.625Z,1.00
2022-08-04T02:25:47.616Z,1.20
2022-08-04T02:26:47.634Z,1.00
2022-08-04T02:28:00.172Z,1.00
2022-08-04T02:28:48.687Z,1.00
2022-08-04T02:29:47.555Z,1.00
2022-08-04T02:30:47.537Z,1.00
2022-08-04T02:31:47.531Z,1.00
2022-08-04T02:32:47.523Z,1.10
2022-08-04T02:33:47.493Z,1.10
2022-08-04T02:34:47.515Z,1.30
2022-08-04T02:35:47.464Z,1.10
2022-08-04T02:36:47.467Z,1.20
2022-08-04T02:37:47.449Z,1.20
2022-08-04T02:38:47.447Z,1.10
2022-08-04T02:39:48.369Z,1.00
2022-08-04T02:40:47.437Z,1.00
2022-08-04T02:41:47.396Z,1.10
2022-08-04T02:42:47.412Z,1.20
2022-08-04T02:43:51.703Z,1.10
2022-08-04T02:44:48.356Z,1.10
2022-08-04T02:45:47.347Z,1.00
2022-08-04T02:46:47.346Z,1.10
2022-08-04T02:48:29.160Z,1.10
2022-08-04T02:48:48.309Z,1.10
2022-08-04T02:49:47.296Z,1.20
2022-08-04T02:50:47.298Z,1.20
2022-08-04T02:51:47.269Z,1.30
2022-08-04T02:52:47.249Z,1.10
2022-08-04T02:53:47.240Z,1.20
2022-08-04T02:54:47.229Z,1.20
2022-08-04T02:55:50.771Z,1.20
2022-08-04T02:56:47.210Z,1.30
2022-08-04T02:57:47.220Z,1.30
2022-08-04T02:58:47.180Z,1.10
2022-08-04T02:59:47.190Z,1.30
2022-08-04T03:00:47.209Z,1.10
2022-08-04T03:01:57.438Z,1.40
2022-08-04T03:02:48.117Z,1.30
2022-08-04T03:03:47.103Z,1.20
2022-08-04T03:04:47.098Z,1.20
2022-08-04T03:05:57.642Z,1.30
2022-08-04T03:06:48.107Z,1.30
2022-08-04T03:07:47.051Z,1.20
2022-08-04T03:08:47.051Z,1.10
2022-08-04T03:09:47.033Z,1.10
2022-08-04T03:10:47.032Z,1.30
2022-08-04T03:11:47.000Z,1.30
2022-08-04T03:12:47.078Z,1.30
2022-08-04T03:13:46.964Z,1.30
2022-08-04T03:14:46.952Z,1.20
2022-08-04T03:15:46.940Z,1.20
2022-08-04T03:16:46.945Z,1.20
2022-08-04T03:17:52.995Z,1.30
2022-08-04T03:18:47.975Z,1.40
2022-08-04T03:19:46.933Z,1.40
2022-08-04T03:20:46.894Z,1.30
2022-08-04T03:21:46.873Z,1.30
2022-08-04T03:23:11.655Z,1.20
2022-08-04T03:23:47.845Z,1.50
2022-08-04T03:24:46.844Z,1.50
2022-08-04T03:25:54.593Z,1.30
2022-08-04T03:26:47.897Z,1.20
2022-08-04T03:27:46.853Z,1.40
2022-08-04T03:28:46.794Z,1.20
2022-08-04T03:29:46.773Z,1.30
2022-08-04T03:30:46.777Z,1.50
2022-08-04T03:31:46.738Z,1.50
2022-08-04T03:32:46.734Z,1.50
2022-08-04T03:33:46.764Z,1.30
2022-08-04T03:34:46.705Z,1.30
2022-08-04T03:35:46.696Z,1.30
2022-08-04T03:36:46.695Z,1.50
2022-08-04T03:37:46.666Z,1.30
2022-08-04T03:38:55.720Z,1.40
2022-08-04T03:39:47.675Z,1.80
2022-08-04T03:40:46.616Z,1.70
2022-08-04T03:41:51.723Z,1.40
2022-08-04T03:42:47.595Z,1.60
2022-08-04T03:43:59.172Z,1.40
2022-08-04T03:44:47.574Z,1.40
2022-08-04T03:45:46.622Z,1.60
2022-08-04T03:46:46.548Z,1.40
2022-08-04T03:47:46.624Z,1.20
2022-08-04T03:48:46.528Z,1.70
2022-08-04T03:49:46.507Z,1.50
2022-08-04T03:50:46.495Z,1.60
2022-08-04T03:51:46.514Z,1.50
2022-08-04T03:52:47.222Z,1.40
2022-08-04T03:53:46.457Z,1.70
2022-08-04T03:54:46.441Z,1.60
2022-08-04T03:55:46.437Z,1.40
2022-08-04T03:56:46.407Z,1.60
2022-08-04T03:57:46.446Z,1.60
2022-08-04T03:58:46.511Z,1.50
2022-08-04T03:59:48.727Z,1.70
2022-08-04T04:00:46.365Z,1.70
2022-08-04T04:02:02.773Z,1.80
2022-08-04T04:02:47.393Z,1.70
2022-08-04T04:03:46.318Z,1.70
2022-08-04T04:04:46.340Z,1.80
2022-08-04T04:06:00.034Z,1.60
2022-08-04T04:06:48.860Z,1.80
2022-08-04T04:07:48.848Z,1.60
2022-08-04T04:08:47.271Z,1.70
2022-08-04T04:09:56.742Z,1.60
2022-08-04T04:10:47.250Z,1.60
2022-08-04T04:11:57.236Z,1.60
2022-08-04T04:12:47.208Z,1.90
2022-08-04T04:13:46.210Z,1.70
2022-08-04T04:14:46.182Z,1.60
2022-08-04T04:15:49.956Z,1.90
2022-08-04T04:16:46.191Z,1.50
2022-08-04T04:17:46.141Z,1.50
2022-08-04T04:18:46.159Z,1.60
2022-08-04T04:19:46.113Z,1.80
2022-08-04T04:20:46.112Z,1.40
2022-08-04T04:21:46.083Z,1.60
2022-08-04T04:22:46.081Z,1.60
2022-08-04T04:23:46.081Z,1.50
2022-08-04T04:24:46.070Z,1.50
2022-08-04T04:25:46.059Z,1.60
2022-08-04T04:26:46.031Z,1.40
2022-08-04T04:27:46.011Z,1.50
2022-08-04T04:28:46.993Z,1.40
2022-08-04T04:29:46.019Z,1.50
2022-08-04T04:30:47.120Z,1.90
2022-08-04T04:31:45.954Z,1.70
2022-08-04T04:32:45.964Z,1.70
2022-08-04T04:33:45.937Z,1.50
2022-08-04T04:34:46.504Z,1.70
2022-08-04T04:35:45.903Z,1.30
2022-08-04T04:36:45.904Z,1.50
2022-08-04T04:37:48.776Z,1.40
2022-08-04T04:38:45.880Z,1.40
2022-08-04T04:39:45.853Z,1.40
2022-08-04T04:40:45.858Z,1.40
2022-08-04T04:41:45.838Z,1.30
2022-08-04T04:42:45.851Z,1.30
2022-08-04T04:43:51.106Z,1.30
2022-08-04T04:44:46.786Z,1.40
2022-08-04T04:45:45.775Z,1.40
2022-08-04T04:46:45.765Z,1.30
2022-08-04T04:48:08.800Z,1.10
2022-08-04T04:48:46.746Z,1.40
2022-08-04T04:49:45.726Z,1.20
2022-08-04T04:50:45.725Z,1.30
2022-08-04T04:51:45.706Z,1.40
2022-08-04T04:52:45.694Z,1.40
2022-08-04T04:53:45.754Z,1.20
2022-08-04T04:54:45.656Z,1.20
2022-08-04T04:55:48.261Z,1.20
2022-08-04T04:56:45.624Z,1.30
2022-08-04T04:57:53.051Z,1.20
2022-08-04T04:58:46.666Z,1.30
2022-08-04T04:59:45.585Z,1.20
2022-08-04T05:00:45.596Z,1.10
2022-08-04T05:01:45.607Z,1.20
2022-08-04T05:02:45.558Z,1.20
2022-08-04T05:03:45.548Z,1.10
2022-08-04T05:04:45.547Z,1.10
2022-08-04T05:05:45.519Z,1.10
2022-08-04T05:06:45.509Z,1.10
2022-08-04T05:07:46.558Z,1.20
2022-08-04T05:08:48.177Z,1.10
2022-08-04T05:09:46.464Z,1.10
2022-08-04T05:10:45.488Z,1.00
2022-08-04T05:11:45.425Z,1.00
2022-08-04T05:14:34.409Z,1.20
2022-08-04T05:14:34.996Z,1.10
2022-08-04T05:14:46.387Z,1.00
2022-08-04T05:15:45.386Z,1.10
2022-08-04T05:16:45.370Z,1.10
2022-08-04T05:17:45.361Z,1.00
2022-08-04T05:18:45.351Z,1.00
2022-08-04T05:19:45.365Z,1.10
2022-08-04T05:20:45.461Z,1.00
2022-08-04T05:21:45.346Z,1.10
2022-08-04T05:22:45.281Z,1.10
2022-08-04T05:23:45.269Z,1.10
2022-08-04T05:24:45.261Z,1.10
2022-08-04T05:25:58.445Z,1.00
2022-08-04T05:26:46.251Z,1.10
2022-08-04T05:27:45.221Z,1.10
2022-08-04T05:28:45.242Z,0.90
2022-08-04T05:29:45.223Z,0.90
2022-08-04T05:30:45.184Z,0.90
2022-08-04T05:31:45.171Z,0.90
2022-08-04T05:32:45.241Z,1.00
2022-08-04T05:33:45.145Z,1.00
2022-08-04T05:34:45.132Z,1.00
2022-08-04T05:36:17.134Z,1.00
2022-08-04T05:36:46.110Z,0.90
2022-08-04T05:37:45.093Z,0.90
2022-08-04T05:38:45.162Z,0.90
2022-08-04T05:39:47.106Z,0.90
2022-08-04T05:40:45.054Z,0.90
2022-08-04T05:41:48.050Z,0.90
2022-08-04T05:42:46.034Z,0.90
2022-08-04T05:43:45.025Z,0.90
2022-08-04T05:44:50.418Z,1.00
2022-08-04T05:45:46.003Z,0.80
2022-08-04T05:46:45.005Z,0.80
2022-08-04T05:47:45.965Z,1.00
2022-08-04T05:48:44.953Z,0.90
2022-08-04T05:49:44.943Z,0.80
2022-08-04T05:50:44.932Z,0.90
2022-08-04T05:51:44.904Z,1.00
2022-08-04T05:52:44.895Z,0.90
2022-08-04T05:53:44.884Z,0.80
2022-08-04T05:54:44.875Z,0.80
2022-08-04T05:55:59.174Z,0.90
2022-08-04T05:56:45.857Z,0.80
2022-08-04T05:57:44.837Z,0.80
2022-08-04T05:58:44.825Z,0.80
2022-08-04T05:59:44.926Z,0.90
2022-08-04T06:00:51.544Z,0.80
2022-08-04T06:01:55.345Z,0.80
2022-08-04T06:02:45.777Z,0.90
2022-08-04T06:03:44.756Z,0.80
2022-08-04T06:04:44.777Z,0.80
2022-08-04T06:05:44.746Z,0.80
2022-08-04T06:06:44.801Z,0.70
2022-08-04T06:08:04.549Z,0.90
2022-08-04T06:08:45.688Z,0.90
2022-08-04T06:09:44.674Z,0.70
2022-08-04T06:10:44.667Z,0.80
2022-08-04T06:12:02.167Z,0.70
2022-08-04T06:12:45.640Z,0.70
2022-08-04T06:13:48.530Z,0.80
2022-08-04T06:14:45.623Z,0.70
2022-08-04T06:15:46.193Z,0.70
2022-08-04T06:16:51.118Z,0.70
2022-08-04T06:18:33.814Z,0.70
2022-08-04T06:19:59.803Z,0.80
2022-08-04T06:20:03.932Z,0.80
2022-08-04T06:20:50.095Z,0.70
2022-08-04T06:21:45.510Z,0.80
2022-08-04T06:22:44.529Z,0.80
2022-08-04T06:23:57.567Z,0.80
2022-08-04T06:24:45.479Z,0.70
2022-08-04T06:25:44.471Z,0.70
2022-08-04T06:26:44.450Z,0.60
2022-08-04T06:27:44.470Z,0.70
2022-08-04T06:28:44.446Z,0.70
2022-08-04T06:29:51.340Z,0.70
2022-08-04T06:30:45.423Z,0.70
2022-08-04T06:32:28.823Z,0.70
2022-08-04T06:32:45.375Z,0.70
2022-08-04T06:33:54.938Z,0.70
2022-08-04T06:34:45.355Z,0.60
2022-08-04T06:35:44.374Z,0.70
2022-08-04T06:36:44.335Z,0.60
2022-08-04T06:37:44.587Z,0.60
2022-08-04T06:38:44.293Z,0.60
2022-08-04T06:39:44.348Z,0.70
2022-08-04T06:40:44.275Z,0.60
2022-08-04T06:42:14.804Z,0.60
2022-08-04T06:42:45.244Z,0.70
2022-08-04T06:43:44.235Z,0.60
2022-08-04T06:44:44.225Z,0.70
2022-08-04T06:45:44.213Z,0.60
2022-08-04T06:46:44.197Z,0.60
2022-08-04T06:47:44.227Z,0.70
2022-08-04T06:48:44.167Z,0.60
2022-08-04T06:51:23.422Z,0.60
2022-08-04T06:51:25.116Z,0.60
2022-08-04T06:51:49.242Z,0.60
2022-08-04T06:52:44.114Z,0.60
2022-08-04T06:53:44.125Z,0.60
2022-08-04T06:54:44.097Z,0.60
2022-08-04T06:55:44.077Z,0.50
2022-08-04T06:56:44.067Z,0.50
2022-08-04T06:57:44.059Z,0.50
2022-08-04T06:58:44.088Z,0.70
2022-08-04T06:59:44.037Z,0.60
2022-08-04T07:00:44.018Z,0.50
2022-08-04T07:01:44.077Z,0.50
2022-08-04T07:02:43.990Z,0.50
2022-08-04T07:03:43.980Z,0.50
2022-08-04T07:04:43.978Z,0.50
2022-08-04T07:05:43.959Z,0.50
2022-08-04T07:06:43.944Z,0.50
2022-08-04T07:07:57.183Z,0.50
2022-08-04T07:08:44.907Z,0.50
2022-08-04T07:09:43.910Z,0.50
2022-08-04T07:10:43.879Z,0.50
2022-08-04T07:11:44.673Z,0.50
2022-08-04T07:12:43.851Z,0.50
2022-08-04T07:13:45.404Z,0.50
2022-08-04T07:14:43.831Z,0.50
2022-08-04T07:15:43.832Z,0.50
2022-08-04T07:16:43.813Z,0.50
2022-08-04T07:17:43.816Z,0.50
2022-08-04T07:18:43.784Z,0.50
2022-08-04T07:19:43.822Z,0.50
2022-08-04T07:20:43.766Z,0.50
2022-08-04T07:22:17.911Z,0.50
2022-08-04T07:22:44.774Z,0.50
2022-08-04T07:23:43.726Z,0.50
2022-08-04T07:24:43.731Z,0.50
2022-08-04T07:26:11.232Z,0.50
2022-08-04T07:26:44.672Z,0.50
2022-08-04T07:27:47.804Z,0.40
2022-08-04T07:28:44.655Z,0.50
2022-08-04T07:29:43.665Z,0.50
2022-08-04T07:30:43.636Z,0.40
2022-08-04T07:31:43.615Z,0.40
2022-08-04T07:32:43.594Z,0.40
2022-08-04T07:33:43.592Z,0.50
2022-08-04T07:34:43.584Z,0.40
2022-08-04T07:36:10.646Z,0.40
2022-08-04T07:36:50.256Z,0.40
2022-08-04T07:38:54.826Z,0.40
2022-08-04T07:39:54.838Z,0.40
2022-08-04T07:40:54.733Z,0.40
2022-08-04T07:41:54.735Z,0.40
2022-08-04T07:42:54.731Z,0.40
2022-08-04T07:43:54.707Z,0.40
2022-08-04T07:44:54.681Z,0.40
2022-08-04T07:45:54.672Z,0.40
2022-08-04T07:46:54.655Z,0.40
2022-08-04T07:48:04.304Z,0.40
2022-08-04T07:48:55.633Z,0.40
2022-08-04T07:49:57.756Z,0.40
2022-08-04T07:50:54.603Z,0.40
2022-08-04T07:51:54.712Z,0.40
2022-08-04T07:53:15.337Z,0.40
2022-08-04T07:53:56.411Z,0.40
2022-08-04T07:54:54.545Z,0.40
2022-08-04T07:55:54.545Z,0.40
2022-08-04T07:56:54.526Z,0.40
2022-08-04T07:57:54.524Z,0.40
2022-08-04T07:58:54.506Z,0.40
2022-08-04T07:59:54.485Z,0.40
2022-08-04T08:00:54.485Z,0.40
2022-08-04T08:01:54.479Z,0.40
2022-08-04T08:02:54.464Z,0.40
2022-08-04T08:03:54.465Z,0.40
2022-08-04T08:04:54.438Z,0.40
2022-08-04T08:06:16.922Z,0.30
2022-08-04T08:06:55.396Z,0.30
2022-08-04T08:07:55.047Z,0.30
2022-08-04T08:08:54.375Z,0.30
2022-08-04T08:09:54.367Z,0.40
2022-08-04T08:10:54.459Z,0.30
2022-08-04T08:12:37.544Z,0.30
2022-08-04T08:12:55.362Z,0.40
2022-08-04T08:13:54.309Z,0.30
2022-08-04T08:14:54.298Z,0.30
2022-08-04T08:15:54.279Z,0.30
2022-08-04T08:16:54.490Z,0.30
2022-08-04T08:17:57.830Z,0.30
2022-08-04T08:18:55.248Z,0.30
2022-08-04T08:19:54.230Z,0.30
2022-08-04T08:20:54.221Z,0.30
2022-08-04T08:21:59.193Z,0.30
2022-08-04T08:22:55.192Z,0.30
2022-08-04T08:23:54.186Z,0.30
2022-08-04T08:24:54.282Z,0.30
2022-08-04T08:25:54.155Z,0.30
2022-08-04T08:26:54.138Z,0.30
2022-08-04T08:27:56.204Z,0.30
2022-08-04T08:28:54.112Z,0.30
2022-08-04T08:29:54.102Z,0.30
2022-08-04T08:30:54.092Z,0.30
2022-08-04T08:31:56.281Z,0.30
2022-08-04T08:32:54.074Z,0.30
2022-08-04T08:33:54.085Z,0.30
2022-08-04T08:34:54.065Z,0.30
2022-08-04T08:35:54.952Z,0.20
2022-08-04T08:36:54.061Z,0.20
2022-08-04T08:37:54.006Z,0.30
2022-08-04T08:38:54.132Z,0.30
2022-08-04T08:39:53.975Z,0.30
2022-08-04T08:40:53.965Z,0.20
2022-08-04T08:41:53.966Z,0.20
2022-08-04T08:42:53.949Z,0.30
2022-08-04T08:44:05.757Z,0.20
2022-08-04T08:44:57.801Z,0.30
2022-08-04T08:45:53.894Z,0.20
2022-08-04T08:46:53.886Z,0.20
2022-08-04T08:48:05.410Z,0.20
2022-08-04T08:48:54.867Z,0.20
2022-08-04T08:50:00.323Z,0.20
2022-08-04T08:50:54.849Z,0.20
2022-08-04T08:51:53.919Z,0.20
2022-08-04T08:53:01.409Z,0.20
2022-08-04T08:53:54.810Z,0.20
2022-08-04T08:54:53.788Z,0.20
2022-08-04T08:55:53.776Z,0.20
2022-08-04T08:56:53.758Z,0.20
2022-08-04T08:57:59.961Z,0.20
2022-08-04T08:58:54.755Z,0.20
2022-08-04T08:59:53.747Z,0.20
2022-08-04T09:00:53.709Z,0.20
2022-08-04T09:01:53.750Z,0.20
2022-08-04T09:03:04.658Z,0.20
2022-08-04T09:03:54.658Z,0.20
2022-08-04T09:04:53.681Z,0.20
2022-08-04T09:05:53.651Z,0.20
2022-08-04T09:06:53.669Z,0.20
2022-08-04T09:07:53.621Z,0.20
2022-08-04T09:08:53.622Z,0.20
2022-08-04T09:09:53.592Z,0.20
2022-08-04T09:10:53.630Z,0.20
2022-08-04T09:11:53.572Z,0.20
2022-08-04T09:12:53.549Z,0.20
2022-08-04T09:13:53.531Z,0.20
2022-08-04T09:14:53.531Z,0.20
2022-08-04T09:15:54.472Z,0.20
2022-08-04T09:16:53.523Z,0.10
2022-08-04T09:17:53.492Z,0.20
2022-08-04T09:18:53.491Z,0.20
2022-08-04T09:19:53.466Z,0.20
2022-08-04T09:20:53.457Z,0.10
2022-08-04T09:21:53.436Z,0.20
2022-08-04T09:22:53.454Z,0.20
2022-08-04T09:23:53.466Z,0.10
2022-08-04T09:24:53.406Z,0.20
2022-08-04T09:25:53.407Z,0.10
2022-08-04T09:26:59.880Z,0.20
2022-08-04T09:27:54.416Z,0.10
2022-08-04T09:28:54.657Z,0.10
2022-08-04T09:29:53.385Z,0.10
2022-08-04T09:30:53.324Z,0.10
2022-08-04T09:32:07.377Z,0.20
2022-08-04T09:32:54.311Z,0.20
2022-08-04T09:33:53.305Z,0.20
2022-08-04T09:35:03.163Z,0.20
2022-08-04T09:35:54.278Z,0.10
2022-08-04T09:36:53.260Z,0.10
2022-08-04T09:37:53.239Z,0.10
2022-08-04T09:38:53.328Z,0.10
2022-08-04T09:39:53.248Z,0.20
2022-08-04T09:40:55.209Z,0.20
2022-08-04T09:41:53.201Z,0.20
2022-08-04T09:42:53.188Z,0.20
2022-08-04T09:44:42.195Z,0.10
2022-08-04T09:44:58.749Z,0.10
2022-08-04T09:45:54.138Z,0.10
2022-08-04T09:46:53.119Z,0.10
2022-08-04T09:47:53.152Z,0.10
2022-08-04T09:48:53.090Z,0.10
2022-08-04T09:49:53.096Z,0.10
2022-08-04T09:50:53.092Z,0.10
2022-08-04T09:51:58.976Z,0.10
2022-08-04T09:52:54.063Z,0.10
2022-08-04T09:53:53.043Z,0.10
2022-08-04T09:54:53.033Z,0.20
2022-08-04T09:55:53.454Z,0.10
2022-08-04T09:56:53.003Z,0.10
2022-08-04T09:57:52.994Z,0.10
2022-08-04T09:58:53.024Z,0.10
2022-08-04T09:59:53.002Z,0.10
2022-08-04T10:00:53.056Z,0.10
2022-08-04T10:02:00.162Z,0.10
2022-08-04T10:02:54.022Z,0.10
2022-08-04T10:03:52.915Z,0.10
2022-08-04T10:04:52.907Z,0.10
2022-08-04T10:05:52.898Z,0.10
2022-08-04T10:06:52.874Z,0.10
2022-08-04T10:08:15.133Z,0.10
2022-08-04T10:08:57.017Z,0.10
2022-08-04T10:09:52.847Z,0.10
2022-08-04T10:10:52.827Z,0.10
2022-08-04T10:11:55.480Z,0.10
2022-08-04T10:12:52.813Z,0.10
2022-08-04T10:13:52.813Z,0.10
2022-08-04T10:14:52.779Z,0.10
2022-08-04T10:15:52.768Z,0.10
2022-08-04T10:16:52.747Z,0.10
2022-08-04T10:17:52.911Z,0.10
2022-08-04T10:18:52.739Z,0.10
2022-08-04T10:19:52.729Z,0.10
2022-08-04T10:20:56.953Z,0.10
2022-08-04T10:22:27.020Z,0.10
2022-08-04T10:23:10.763Z,0.10
2022-08-04T10:23:56.058Z,0.10
2022-08-04T10:24:53.688Z,0.10
2022-08-04T10:26:07.192Z,0.10
2022-08-04T10:26:57.311Z,0.10
2022-08-04T10:27:52.611Z,0.10
2022-08-04T10:28:52.596Z,0.10
2022-08-04T10:29:52.581Z,0.10
2022-08-04T10:30:52.583Z,0.10
2022-08-04T10:31:52.569Z,0.10
2022-08-04T10:32:52.574Z,0.10
2022-08-04T10:33:52.553Z,0.10
2022-08-04T10:34:52.524Z,0.10
2022-08-04T10:35:52.524Z,0.10
2022-08-04T10:36:52.514Z,0.10
2022-08-04T10:37:59.396Z,0.10
2022-08-04T10:38:53.809Z,0.10
2022-08-04T10:39:52.516Z,0.10
2022-08-04T10:40:52.443Z,0.10
2022-08-04T10:41:52.434Z,0.10
2022-08-04T10:42:52.419Z,0.10
2022-08-04T10:43:52.425Z,0.10
2022-08-04T10:44:57.091Z,0.10
2022-08-04T10:45:57.869Z,0.10
2022-08-04T10:46:52.364Z,0.10
2022-08-04T10:47:53.417Z,0.10
2022-08-04T10:48:52.356Z,0.10
2022-08-04T10:49:52.348Z,0.10
2022-08-04T10:50:57.062Z,0.10
2022-08-04T10:51:58.816Z,0.10
2022-08-04T10:52:53.308Z,0.10
2022-08-04T10:53:52.298Z,0.10
2022-08-04T10:54:52.277Z,0.10
2022-08-04T10:56:07.260Z,0.10
2022-08-04T10:56:56.834Z,0.10
2022-08-04T10:57:52.235Z,0.10
2022-08-04T10:58:52.219Z,0.10
2022-08-04T10:59:52.266Z,0.10
2022-08-04T11:00:52.248Z,0.10
2022-08-04T11:02:03.252Z,0.10
2022-08-04T11:02:53.224Z,0.10
2022-08-04T11:03:52.171Z,0.10
2022-08-04T11:04:52.180Z,0.10
2022-08-04T11:05:52.172Z,0.20
2022-08-04T11:06:52.130Z,0.10
2022-08-04T11:07:52.124Z,0.10
2022-08-04T11:08:52.134Z,0.10
2022-08-04T11:09:52.111Z,0.10
2022-08-04T11:10:52.143Z,0.10
2022-08-04T11:11:56.924Z,0.10
2022-08-04T11:12:53.052Z,0.10
2022-08-04T11:13:52.215Z,0.10
2022-08-04T11:14:52.034Z,0.10
2022-08-04T11:15:52.110Z,0.10
2022-08-04T11:16:52.008Z,0.10
2022-08-04T11:17:52.003Z,0.10
2022-08-04T11:18:51.973Z,0.10
2022-08-04T11:19:54.556Z,0.10
2022-08-04T11:20:52.973Z,0.10
2022-08-04T11:21:51.955Z,0.10
2022-08-04T11:22:51.933Z,0.10
2022-08-04T11:23:51.938Z,0.10
2022-08-04T11:24:51.908Z,0.10
2022-08-04T11:25:52.422Z,0.10
2022-08-04T11:26:51.899Z,0.10
2022-08-04T11:27:51.889Z,0.10
2022-08-04T11:29:03.474Z,0.10
2022-08-04T11:29:52.850Z,0.10
2022-08-04T11:30:51.896Z,0.10
2022-08-04T11:31:52.322Z,0.10
2022-08-04T11:32:51.899Z,0.10
2022-08-04T11:33:52.995Z,0.10
2022-08-04T11:34:52.803Z,0.10
2022-08-04T11:35:51.770Z,0.10
2022-08-04T11:36:51.748Z,0.00
2022-08-04T11:37:51.738Z,0.10
2022-08-04T11:38:52.195Z,0.10
2022-08-04T11:39:51.733Z,0.10
2022-08-04T11:41:02.205Z,0.10
2022-08-04T11:41:52.680Z,0.10
2022-08-04T11:42:51.666Z,0.10
2022-08-04T11:44:01.362Z,0.10
2022-08-04T11:44:52.651Z,0.10
2022-08-04T11:45:51.841Z,0.10
2022-08-04T11:46:51.633Z,0.10
2022-08-04T11:47:51.611Z,0.10
2022-08-04T11:48:51.601Z,0.10
2022-08-04T11:49:56.496Z,0.10
2022-08-04T11:50:53.966Z,0.10
2022-08-04T11:51:51.573Z,0.10
2022-08-04T11:52:51.589Z,0.10
2022-08-04T11:53:51.542Z,0.10
2022-08-04T11:54:52.562Z,0.10
2022-08-04T11:56:07.577Z,0.10
2022-08-04T11:56:52.502Z,0.10
2022-08-04T11:57:54.343Z,0.10
2022-08-04T11:58:51.603Z,0.10
2022-08-04T11:59:51.464Z,0.10
2022-08-04T12:00:51.455Z,0.10
2022-08-04T12:01:51.500Z,0.10
2022-08-04T12:02:51.480Z,0.10
2022-08-04T12:04:03.987Z,0.10
2022-08-04T12:04:52.407Z,0.10
2022-08-04T12:05:51.397Z,0.00
2022-08-04T12:07:04.734Z,0.10
2022-08-04T12:07:52.388Z,0.10
2022-08-04T12:08:51.359Z,0.10
2022-08-04T12:09:51.336Z,0.10
2022-08-04T12:10:51.323Z,0.10
2022-08-04T12:11:51.329Z,0.10
2022-08-04T12:12:51.297Z,0.10
2022-08-04T12:13:51.305Z,0.10
2022-08-04T12:14:51.278Z,0.10
2022-08-04T12:15:51.261Z,0.10
2022-08-04T12:16:51.278Z,0.10
2022-08-04T12:17:53.409Z,0.10
2022-08-04T12:18:52.551Z,0.10
2022-08-04T12:20:03.876Z,0.10
2022-08-04T12:20:52.360Z,0.00
2022-08-04T12:21:53.175Z,0.00
2022-08-04T12:22:51.202Z,0.00
2022-08-04T12:23:56.675Z,0.10
2022-08-04T12:24:52.180Z,0.10
2022-08-04T12:25:51.140Z,0.00
2022-08-04T12:26:51.164Z,0.10
2022-08-04T12:27:51.123Z,0.10
2022-08-04T12:29:09.477Z,0.10
2022-08-04T12:30:57.469Z,0.10
2022-08-04T12:31:00.105Z,0.00
2022-08-04T12:31:52.097Z,0.00
2022-08-04T12:32:53.813Z,0.00
2022-08-04T12:34:04.072Z,0.00
2022-08-04T12:34:52.044Z,0.00
2022-08-04T12:35:58.133Z,0.00
2022-08-04T12:36:52.022Z,0.00
2022-08-04T12:37:51.003Z,0.00
2022-08-04T12:38:51.152Z,0.10
2022-08-04T12:40:27.718Z,0.00
2022-08-04T12:40:51.974Z,0.00
2022-08-04T12:41:50.961Z,0.00
2022-08-04T12:42:56.092Z,0.10
2022-08-04T12:43:51.976Z,0.00
2022-08-04T12:44:50.917Z,0.00
2022-08-04T12:45:50.957Z,0.00
2022-08-04T12:46:50.895Z,0.00
2022-08-04T12:47:50.886Z,0.00
2022-08-04T12:48:50.866Z,0.00
2022-08-04T12:49:59.966Z,0.00
2022-08-04T12:50:51.856Z,0.00
2022-08-04T12:52:07.744Z,0.00
2022-08-04T12:53:01.568Z,0.00
2022-08-04T12:53:51.827Z,0.00
2022-08-04T12:54:50.807Z,0.00
2022-08-04T12:56:01.424Z,0.00
2022-08-04T12:56:51.770Z,0.00
2022-08-04T12:57:50.769Z,0.00
2022-08-04T12:58:50.742Z,0.00
2022-08-04T12:59:56.891Z,0.10
2022-08-04T13:00:51.750Z,0.00
2022-08-04T13:02:09.028Z,0.00
2022-08-04T13:02:51.692Z,0.00
2022-08-04T13:03:50.711Z,0.00
2022-08-04T13:04:51.715Z,0.00
2022-08-04T13:05:50.661Z,0.00
2022-08-04T13:06:50.650Z,0.00
2022-08-04T13:07:50.632Z,0.00
2022-08-04T13:08:50.611Z,0.00
2022-08-04T13:09:50.611Z,0.10
2022-08-04T13:10:50.591Z,0.00
2022-08-04T13:11:50.584Z,0.00
2022-08-04T13:12:50.593Z,0.00
2022-08-04T13:14:00.706Z,0.00
2022-08-04T13:14:51.564Z,0.00
2022-08-04T13:15:56.747Z,0.00
2022-08-04T13:16:51.648Z,0.00
2022-08-04T13:17:50.525Z,0.00
2022-08-04T13:18:50.503Z,0.00
2022-08-04T13:19:53.246Z,0.00
2022-08-04T13:20:50.472Z,0.00